sensor_id;sensor_type;location;lat;lon;timestamp;P1;durP1;ratioP1;P2;durP2;ratioP2
70150;SDS011;57517;43.562;19.540;2024-02-21T00:02:18;54.65;;;39.92;;
70150;SDS011;57517;43.562;19.540;2024-02-21T00:04:44;64.07;;;46.35;;
70150;SDS011;57517;43.562;19.540;2024-02-21T00:07:09;56.38;;;45.08;;
70150;SDS011;57517;43.562;19.540;2024-02-21T00:09:35;60.97;;;46.30;;
70150;SDS011;57517;43.562;19.540;2024-02-21T00:12:01;49.33;;;37.45;;
70150;SDS011;57517;43.562;19.540;2024-02-21T00:14:28;44.13;;;35.80;;
70150;SDS011;57517;43.562;19.540;2024-02-21T00:16:54;43.28;;;34.15;;
70150;SDS011;57517;43.562;19.540;2024-02-21T00:19:19;53.25;;;38.67;;
70150;SDS011;57517;43.562;19.540;2024-02-21T00:21:46;53.33;;;42.78;;
70150;SDS011;57517;43.562;19.540;2024-02-21T00:24:11;60.83;;;43.83;;
70150;SDS011;57517;43.562;19.540;2024-02-21T00:26:37;60.85;;;46.25;;
70150;SDS011;57517;43.562;19.540;2024-02-21T00:29:03;61.80;;;45.13;;
70150;SDS011;57517;43.562;19.540;2024-02-21T00:31:30;60.65;;;44.60;;
70150;SDS011;57517;43.562;19.540;2024-02-21T00:33:56;61.58;;;47.85;;
70150;SDS011;57517;43.562;19.540;2024-02-21T00:36:22;59.83;;;45.65;;
70150;SDS011;57517;43.562;19.540;2024-02-21T00:38:48;58.58;;;44.35;;
70150;SDS011;57517;43.562;19.540;2024-02-21T00:41:14;60.83;;;44.13;;
70150;SDS011;57517;43.562;19.540;2024-02-21T00:43:41;63.35;;;44.08;;
70150;SDS011;57517;43.562;19.540;2024-02-21T00:46:07;56.55;;;42.05;;
70150;SDS011;57517;43.562;19.540;2024-02-21T00:48:33;51.85;;;37.03;;
70150;SDS011;57517;43.562;19.540;2024-02-21T00:50:59;47.00;;;35.50;;
70150;SDS011;57517;43.562;19.540;2024-02-21T00:53:25;54.00;;;40.42;;
70150;SDS011;57517;43.562;19.540;2024-02-21T00:55:50;58.13;;;42.28;;
70150;SDS011;57517;43.562;19.540;2024-02-21T00:58:16;64.55;;;44.33;;
70150;SDS011;57517;43.562;19.540;2024-02-21T01:00:42;57.20;;;43.33;;
70150;SDS011;57517;43.562;19.540;2024-02-21T01:03:08;59.22;;;42.13;;
70150;SDS011;57517;43.562;19.540;2024-02-21T01:05:34;53.88;;;41.83;;
70150;SDS011;57517;43.562;19.540;2024-02-21T01:07:59;57.53;;;43.22;;
70150;SDS011;57517;43.562;19.540;2024-02-21T01:10:25;55.83;;;41.95;;
70150;SDS011;57517;43.562;19.540;2024-02-21T01:12:51;53.97;;;42.15;;
70150;SDS011;57517;43.562;19.540;2024-02-21T01:15:17;62.67;;;44.88;;
70150;SDS011;57517;43.562;19.540;2024-02-21T01:17:43;62.70;;;48.47;;
70150;SDS011;57517;43.562;19.540;2024-02-21T01:20:09;68.38;;;51.28;;
70150;SDS011;57517;43.562;19.540;2024-02-21T01:22:35;64.50;;;49.67;;
70150;SDS011;57517;43.562;19.540;2024-02-21T01:25:00;63.92;;;48.58;;
70150;SDS011;57517;43.562;19.540;2024-02-21T01:27:26;63.42;;;49.88;;
70150;SDS011;57517;43.562;19.540;2024-02-21T01:29:53;69.45;;;52.30;;
70150;SDS011;57517;43.562;19.540;2024-02-21T01:32:18;68.57;;;50.17;;
70150;SDS011;57517;43.562;19.540;2024-02-21T01:34:44;65.53;;;49.05;;
70150;SDS011;57517;43.562;19.540;2024-02-21T01:37:10;68.10;;;50.25;;
70150;SDS011;57517;43.562;19.540;2024-02-21T01:39:36;68.95;;;51.83;;
70150;SDS011;57517;43.562;19.540;2024-02-21T01:42:02;71.50;;;52.53;;
70150;SDS011;57517;43.562;19.540;2024-02-21T01:44:28;64.70;;;50.20;;
70150;SDS011;57517;43.562;19.540;2024-02-21T01:46:54;68.32;;;51.15;;
70150;SDS011;57517;43.562;19.540;2024-02-21T01:49:20;67.32;;;51.25;;
70150;SDS011;57517;43.562;19.540;2024-02-21T01:51:47;66.90;;;49.85;;
70150;SDS011;57517;43.562;19.540;2024-02-21T01:54:13;70.50;;;50.42;;
70150;SDS011;57517;43.562;19.540;2024-02-21T01:56:41;63.28;;;49.28;;
70150;SDS011;57517;43.562;19.540;2024-02-21T01:59:07;70.38;;;49.97;;
70150;SDS011;57517;43.562;19.540;2024-02-21T02:01:33;59.65;;;46.58;;
70150;SDS011;57517;43.562;19.540;2024-02-21T02:03:59;66.57;;;48.83;;
70150;SDS011;57517;43.562;19.540;2024-02-21T02:06:25;68.03;;;48.35;;
70150;SDS011;57517;43.562;19.540;2024-02-21T02:08:51;58.42;;;47.83;;
70150;SDS011;57517;43.562;19.540;2024-02-21T02:11:17;63.75;;;48.08;;
70150;SDS011;57517;43.562;19.540;2024-02-21T02:13:43;60.10;;;46.42;;
70150;SDS011;57517;43.562;19.540;2024-02-21T02:16:09;62.08;;;47.40;;
70150;SDS011;57517;43.562;19.540;2024-02-21T02:18:35;64.65;;;48.63;;
70150;SDS011;57517;43.562;19.540;2024-02-21T02:21:01;63.97;;;48.90;;
70150;SDS011;57517;43.562;19.540;2024-02-21T02:23:30;59.97;;;47.63;;
70150;SDS011;57517;43.562;19.540;2024-02-21T02:25:59;59.88;;;48.45;;
70150;SDS011;57517;43.562;19.540;2024-02-21T02:28:28;66.25;;;50.65;;
70150;SDS011;57517;43.562;19.540;2024-02-21T02:30:54;62.38;;;47.17;;
70150;SDS011;57517;43.562;19.540;2024-02-21T02:33:20;58.97;;;46.00;;
70150;SDS011;57517;43.562;19.540;2024-02-21T02:35:45;58.08;;;45.08;;
70150;SDS011;57517;43.562;19.540;2024-02-21T02:38:11;56.78;;;44.50;;
70150;SDS011;57517;43.562;19.540;2024-02-21T02:40:38;59.10;;;45.15;;
70150;SDS011;57517;43.562;19.540;2024-02-21T02:43:05;53.83;;;43.50;;
70150;SDS011;57517;43.562;19.540;2024-02-21T02:45:31;55.35;;;44.33;;
70150;SDS011;57517;43.562;19.540;2024-02-21T02:47:58;56.35;;;44.78;;
70150;SDS011;57517;43.562;19.540;2024-02-21T02:50:24;61.35;;;44.40;;
70150;SDS011;57517;43.562;19.540;2024-02-21T02:52:50;52.15;;;40.17;;
70150;SDS011;57517;43.562;19.540;2024-02-21T02:55:16;54.55;;;41.20;;
70150;SDS011;57517;43.562;19.540;2024-02-21T02:57:42;52.65;;;40.15;;
70150;SDS011;57517;43.562;19.540;2024-02-21T03:00:09;59.63;;;42.00;;
70150;SDS011;57517;43.562;19.540;2024-02-21T03:02:37;53.88;;;40.83;;
70150;SDS011;57517;43.562;19.540;2024-02-21T03:05:11;51.88;;;38.42;;
70150;SDS011;57517;43.562;19.540;2024-02-21T03:07:39;54.40;;;40.38;;
70150;SDS011;57517;43.562;19.540;2024-02-21T03:10:06;53.20;;;38.80;;
70150;SDS011;57517;43.562;19.540;2024-02-21T03:12:32;53.20;;;37.25;;
70150;SDS011;57517;43.562;19.540;2024-02-21T03:14:58;56.92;;;38.55;;
70150;SDS011;57517;43.562;19.540;2024-02-21T03:17:24;52.30;;;38.00;;
70150;SDS011;57517;43.562;19.540;2024-02-21T03:19:52;52.95;;;37.10;;
70150;SDS011;57517;43.562;19.540;2024-02-21T03:22:18;53.78;;;39.58;;
70150;SDS011;57517;43.562;19.540;2024-02-21T03:24:44;52.70;;;38.92;;
70150;SDS011;57517;43.562;19.540;2024-02-21T03:27:10;55.28;;;40.00;;
70150;SDS011;57517;43.562;19.540;2024-02-21T03:29:35;50.63;;;39.35;;
70150;SDS011;57517;43.562;19.540;2024-02-21T03:32:01;56.00;;;40.85;;
70150;SDS011;57517;43.562;19.540;2024-02-21T03:34:27;57.65;;;44.38;;
70150;SDS011;57517;43.562;19.540;2024-02-21T03:36:53;55.30;;;41.47;;
70150;SDS011;57517;43.562;19.540;2024-02-21T03:39:19;54.00;;;37.67;;
70150;SDS011;57517;43.562;19.540;2024-02-21T03:41:46;49.58;;;34.80;;
70150;SDS011;57517;43.562;19.540;2024-02-21T03:44:12;47.53;;;35.47;;
70150;SDS011;57517;43.562;19.540;2024-02-21T03:46:38;55.95;;;35.47;;
70150;SDS011;57517;43.562;19.540;2024-02-21T03:49:03;46.90;;;33.65;;
70150;SDS011;57517;43.562;19.540;2024-02-21T03:51:29;43.05;;;32.83;;
70150;SDS011;57517;43.562;19.540;2024-02-21T03:53:55;54.13;;;36.05;;
70150;SDS011;57517;43.562;19.540;2024-02-21T03:56:21;50.20;;;33.55;;
70150;SDS011;57517;43.562;19.540;2024-02-21T03:58:47;49.83;;;34.35;;
70150;SDS011;57517;43.562;19.540;2024-02-21T04:01:15;48.03;;;32.83;;
70150;SDS011;57517;43.562;19.540;2024-02-21T04:03:40;44.25;;;33.55;;
70150;SDS011;57517;43.562;19.540;2024-02-21T04:06:07;45.67;;;32.55;;
70150;SDS011;57517;43.562;19.540;2024-02-21T04:08:33;45.20;;;32.13;;
70150;SDS011;57517;43.562;19.540;2024-02-21T04:10:58;48.88;;;33.92;;
70150;SDS011;57517;43.562;19.540;2024-02-21T04:13:24;46.33;;;33.00;;
70150;SDS011;57517;43.562;19.540;2024-02-21T04:15:50;47.53;;;33.28;;
70150;SDS011;57517;43.562;19.540;2024-02-21T04:18:16;50.67;;;32.17;;
70150;SDS011;57517;43.562;19.540;2024-02-21T04:20:42;42.50;;;29.10;;
70150;SDS011;57517;43.562;19.540;2024-02-21T04:23:08;43.55;;;30.50;;
70150;SDS011;57517;43.562;19.540;2024-02-21T04:25:34;43.10;;;28.65;;
70150;SDS011;57517;43.562;19.540;2024-02-21T04:28:00;41.95;;;27.17;;
70150;SDS011;57517;43.562;19.540;2024-02-21T04:30:26;39.95;;;25.10;;
70150;SDS011;57517;43.562;19.540;2024-02-21T04:32:52;43.47;;;25.27;;
70150;SDS011;57517;43.562;19.540;2024-02-21T04:35:18;36.22;;;23.98;;
70150;SDS011;57517;43.562;19.540;2024-02-21T04:37:43;37.80;;;24.15;;
70150;SDS011;57517;43.562;19.540;2024-02-21T04:40:09;34.35;;;21.05;;
70150;SDS011;57517;43.562;19.540;2024-02-21T04:42:36;32.65;;;21.33;;
70150;SDS011;57517;43.562;19.540;2024-02-21T04:45:02;28.02;;;18.30;;
70150;SDS011;57517;43.562;19.540;2024-02-21T04:47:28;27.92;;;19.95;;
70150;SDS011;57517;43.562;19.540;2024-02-21T04:49:53;27.17;;;18.05;;
70150;SDS011;57517;43.562;19.540;2024-02-21T04:52:20;29.60;;;19.80;;
70150;SDS011;57517;43.562;19.540;2024-02-21T04:54:46;30.27;;;19.70;;
70150;SDS011;57517;43.562;19.540;2024-02-21T04:57:12;30.75;;;19.05;;
70150;SDS011;57517;43.562;19.540;2024-02-21T04:59:42;28.70;;;19.00;;
70150;SDS011;57517;43.562;19.540;2024-02-21T05:02:09;28.10;;;17.73;;
70150;SDS011;57517;43.562;19.540;2024-02-21T05:04:36;27.92;;;18.40;;
70150;SDS011;57517;43.562;19.540;2024-02-21T05:07:03;29.67;;;19.85;;
70150;SDS011;57517;43.562;19.540;2024-02-21T05:09:30;29.40;;;18.13;;
70150;SDS011;57517;43.562;19.540;2024-02-21T05:11:56;29.08;;;19.20;;
70150;SDS011;57517;43.562;19.540;2024-02-21T05:14:24;28.65;;;18.50;;
70150;SDS011;57517;43.562;19.540;2024-02-21T05:16:51;29.98;;;19.20;;
70150;SDS011;57517;43.562;19.540;2024-02-21T05:19:17;32.50;;;22.15;;
70150;SDS011;57517;43.562;19.540;2024-02-21T05:21:43;42.47;;;25.95;;
70150;SDS011;57517;43.562;19.540;2024-02-21T05:24:09;42.38;;;27.17;;
70150;SDS011;57517;43.562;19.540;2024-02-21T05:26:35;43.38;;;27.48;;
70150;SDS011;57517;43.562;19.540;2024-02-21T05:29:01;38.03;;;25.33;;
70150;SDS011;57517;43.562;19.540;2024-02-21T05:31:28;37.38;;;23.48;;
70150;SDS011;57517;43.562;19.540;2024-02-21T05:34:17;35.67;;;22.75;;
70150;SDS011;57517;43.562;19.540;2024-02-21T05:36:43;38.55;;;22.92;;
70150;SDS011;57517;43.562;19.540;2024-02-21T05:39:09;32.55;;;21.67;;
70150;SDS011;57517;43.562;19.540;2024-02-21T05:41:35;31.08;;;21.90;;
70150;SDS011;57517;43.562;19.540;2024-02-21T05:44:01;35.58;;;21.38;;
70150;SDS011;57517;43.562;19.540;2024-02-21T05:46:27;37.20;;;22.92;;
70150;SDS011;57517;43.562;19.540;2024-02-21T05:48:52;37.40;;;24.20;;
70150;SDS011;57517;43.562;19.540;2024-02-21T05:51:18;38.50;;;25.42;;
70150;SDS011;57517;43.562;19.540;2024-02-21T05:53:44;40.50;;;26.15;;
70150;SDS011;57517;43.562;19.540;2024-02-21T05:56:10;44.97;;;26.90;;
70150;SDS011;57517;43.562;19.540;2024-02-21T05:58:37;39.42;;;27.13;;
70150;SDS011;57517;43.562;19.540;2024-02-21T06:01:03;44.00;;;27.42;;
70150;SDS011;57517;43.562;19.540;2024-02-21T06:03:29;39.70;;;24.73;;
70150;SDS011;57517;43.562;19.540;2024-02-21T06:05:55;40.78;;;25.98;;
70150;SDS011;57517;43.562;19.540;2024-02-21T06:08:21;42.45;;;26.33;;
70150;SDS011;57517;43.562;19.540;2024-02-21T06:10:47;39.13;;;25.00;;
70150;SDS011;57517;43.562;19.540;2024-02-21T06:13:13;43.72;;;26.27;;
70150;SDS011;57517;43.562;19.540;2024-02-21T06:15:39;41.13;;;28.30;;
70150;SDS011;57517;43.562;19.540;2024-02-21T06:18:05;46.75;;;27.38;;
70150;SDS011;57517;43.562;19.540;2024-02-21T06:20:31;39.33;;;25.02;;
70150;SDS011;57517;43.562;19.540;2024-02-21T06:22:57;32.40;;;22.77;;
70150;SDS011;57517;43.562;19.540;2024-02-21T06:25:23;34.67;;;22.77;;
70150;SDS011;57517;43.562;19.540;2024-02-21T06:27:48;30.13;;;22.65;;
70150;SDS011;57517;43.562;19.540;2024-02-21T06:30:14;31.40;;;21.63;;
70150;SDS011;57517;43.562;19.540;2024-02-21T06:32:40;34.13;;;23.15;;
70150;SDS011;57517;43.562;19.540;2024-02-21T06:35:06;32.53;;;21.55;;
70150;SDS011;57517;43.562;19.540;2024-02-21T06:37:31;36.53;;;23.23;;
70150;SDS011;57517;43.562;19.540;2024-02-21T06:39:57;43.70;;;28.95;;
70150;SDS011;57517;43.562;19.540;2024-02-21T06:42:26;42.72;;;29.45;;
70150;SDS011;57517;43.562;19.540;2024-02-21T06:44:52;43.72;;;31.83;;
70150;SDS011;57517;43.562;19.540;2024-02-21T06:47:18;45.75;;;31.48;;
70150;SDS011;57517;43.562;19.540;2024-02-21T06:49:49;54.58;;;34.60;;
70150;SDS011;57517;43.562;19.540;2024-02-21T06:52:17;51.03;;;33.70;;
70150;SDS011;57517;43.562;19.540;2024-02-21T06:54:45;51.40;;;35.13;;
70150;SDS011;57517;43.562;19.540;2024-02-21T06:57:14;57.55;;;40.15;;
70150;SDS011;57517;43.562;19.540;2024-02-21T06:59:40;75.13;;;51.63;;
70150;SDS011;57517;43.562;19.540;2024-02-21T07:02:07;112.90;;;78.43;;
70150;SDS011;57517;43.562;19.540;2024-02-21T07:04:33;69.95;;;49.47;;
70150;SDS011;57517;43.562;19.540;2024-02-21T07:06:59;51.13;;;37.63;;
70150;SDS011;57517;43.562;19.540;2024-02-21T07:09:25;60.13;;;37.75;;
70150;SDS011;57517;43.562;19.540;2024-02-21T07:11:50;47.50;;;34.20;;
70150;SDS011;57517;43.562;19.540;2024-02-21T07:14:17;45.70;;;31.73;;
70150;SDS011;57517;43.562;19.540;2024-02-21T07:16:43;39.13;;;27.02;;
70150;SDS011;57517;43.562;19.540;2024-02-21T07:19:09;33.65;;;25.52;;
70150;SDS011;57517;43.562;19.540;2024-02-21T07:21:35;42.03;;;30.98;;
70150;SDS011;57517;43.562;19.540;2024-02-21T07:24:03;69.55;;;43.40;;
70150;SDS011;57517;43.562;19.540;2024-02-21T07:26:30;53.67;;;35.88;;
70150;SDS011;57517;43.562;19.540;2024-02-21T07:28:56;47.55;;;32.28;;
70150;SDS011;57517;43.562;19.540;2024-02-21T07:31:22;47.30;;;33.33;;
70150;SDS011;57517;43.562;19.540;2024-02-21T07:33:48;46.92;;;35.58;;
70150;SDS011;57517;43.562;19.540;2024-02-21T07:36:14;52.90;;;37.58;;
70150;SDS011;57517;43.562;19.540;2024-02-21T07:38:42;56.28;;;40.40;;
70150;SDS011;57517;43.562;19.540;2024-02-21T07:41:09;60.05;;;43.33;;
70150;SDS011;57517;43.562;19.540;2024-02-21T07:43:35;63.60;;;46.05;;
70150;SDS011;57517;43.562;19.540;2024-02-21T07:46:00;59.60;;;42.65;;
70150;SDS011;57517;43.562;19.540;2024-02-21T07:48:26;55.15;;;40.88;;
70150;SDS011;57517;43.562;19.540;2024-02-21T07:50:52;58.13;;;41.72;;
70150;SDS011;57517;43.562;19.540;2024-02-21T07:53:19;52.45;;;39.25;;
70150;SDS011;57517;43.562;19.540;2024-02-21T07:55:45;57.55;;;42.08;;
70150;SDS011;57517;43.562;19.540;2024-02-21T07:58:11;53.63;;;38.45;;
70150;SDS011;57517;43.562;19.540;2024-02-21T08:00:36;57.28;;;41.05;;
70150;SDS011;57517;43.562;19.540;2024-02-21T08:03:02;55.83;;;41.75;;
70150;SDS011;57517;43.562;19.540;2024-02-21T08:05:28;55.63;;;42.90;;
70150;SDS011;57517;43.562;19.540;2024-02-21T08:07:55;58.17;;;42.95;;
70150;SDS011;57517;43.562;19.540;2024-02-21T08:10:21;72.18;;;52.10;;
70150;SDS011;57517;43.562;19.540;2024-02-21T08:12:46;79.35;;;55.72;;
70150;SDS011;57517;43.562;19.540;2024-02-21T08:15:12;75.00;;;55.22;;
70150;SDS011;57517;43.562;19.540;2024-02-21T08:17:38;68.55;;;49.08;;
70150;SDS011;57517;43.562;19.540;2024-02-21T08:20:04;58.63;;;44.85;;
70150;SDS011;57517;43.562;19.540;2024-02-21T08:22:30;59.05;;;43.45;;
70150;SDS011;57517;43.562;19.540;2024-02-21T08:24:56;60.55;;;41.17;;
70150;SDS011;57517;43.562;19.540;2024-02-21T08:27:22;60.72;;;42.55;;
70150;SDS011;57517;43.562;19.540;2024-02-21T08:29:48;59.72;;;43.72;;
70150;SDS011;57517;43.562;19.540;2024-02-21T08:32:14;66.60;;;48.13;;
70150;SDS011;57517;43.562;19.540;2024-02-21T08:34:40;71.38;;;49.67;;
70150;SDS011;57517;43.562;19.540;2024-02-21T08:37:05;71.60;;;49.25;;
70150;SDS011;57517;43.562;19.540;2024-02-21T08:39:31;74.75;;;58.13;;
70150;SDS011;57517;43.562;19.540;2024-02-21T08:41:57;87.13;;;57.50;;
70150;SDS011;57517;43.562;19.540;2024-02-21T08:44:23;78.85;;;55.83;;
70150;SDS011;57517;43.562;19.540;2024-02-21T08:46:52;92.35;;;61.20;;
70150;SDS011;57517;43.562;19.540;2024-02-21T08:49:18;69.07;;;48.47;;
70150;SDS011;57517;43.562;19.540;2024-02-21T08:51:44;65.32;;;46.50;;
70150;SDS011;57517;43.562;19.540;2024-02-21T08:54:10;64.68;;;47.05;;
70150;SDS011;57517;43.562;19.540;2024-02-21T08:56:36;63.97;;;47.28;;
70150;SDS011;57517;43.562;19.540;2024-02-21T08:59:02;62.95;;;49.45;;
70150;SDS011;57517;43.562;19.540;2024-02-21T09:01:28;64.05;;;48.05;;
70150;SDS011;57517;43.562;19.540;2024-02-21T09:03:54;72.47;;;55.17;;
70150;SDS011;57517;43.562;19.540;2024-02-21T09:06:21;63.15;;;47.33;;
70150;SDS011;57517;43.562;19.540;2024-02-21T09:08:47;58.47;;;43.42;;
70150;SDS011;57517;43.562;19.540;2024-02-21T09:11:14;59.33;;;42.67;;
70150;SDS011;57517;43.562;19.540;2024-02-21T09:13:41;58.05;;;43.67;;
70150;SDS011;57517;43.562;19.540;2024-02-21T09:16:06;52.10;;;37.78;;
70150;SDS011;57517;43.562;19.540;2024-02-21T09:18:34;43.47;;;31.75;;
70150;SDS011;57517;43.562;19.540;2024-02-21T09:20:59;52.58;;;40.22;;
70150;SDS011;57517;43.562;19.540;2024-02-21T09:23:25;70.78;;;46.72;;
70150;SDS011;57517;43.562;19.540;2024-02-21T09:25:52;67.35;;;50.08;;
70150;SDS011;57517;43.562;19.540;2024-02-21T09:28:18;49.20;;;36.50;;
70150;SDS011;57517;43.562;19.540;2024-02-21T09:30:44;69.78;;;51.85;;
70150;SDS011;57517;43.562;19.540;2024-02-21T09:33:10;52.28;;;38.63;;
70150;SDS011;57517;43.562;19.540;2024-02-21T09:35:36;37.33;;;27.05;;
70150;SDS011;57517;43.562;19.540;2024-02-21T09:38:02;40.65;;;31.67;;
70150;SDS011;57517;43.562;19.540;2024-02-21T09:40:28;31.65;;;25.42;;
70150;SDS011;57517;43.562;19.540;2024-02-21T09:43:03;25.30;;;18.98;;
70150;SDS011;57517;43.562;19.540;2024-02-21T09:45:33;31.65;;;22.58;;
70150;SDS011;57517;43.562;19.540;2024-02-21T09:50:49;19.83;;;15.80;;
70150;SDS011;57517;43.562;19.540;2024-02-21T09:53:16;17.67;;;13.65;;
70150;SDS011;57517;43.562;19.540;2024-02-21T09:55:44;64.00;;;41.45;;
70150;SDS011;57517;43.562;19.540;2024-02-21T09:58:11;17.13;;;13.20;;
70150;SDS011;57517;43.562;19.540;2024-02-21T10:00:38;11.43;;;9.48;;
70150;SDS011;57517;43.562;19.540;2024-02-21T10:03:04;12.50;;;10.02;;
70150;SDS011;57517;43.562;19.540;2024-02-21T10:05:33;11.40;;;9.80;;
70150;SDS011;57517;43.562;19.540;2024-02-21T10:08:02;11.57;;;10.25;;
70150;SDS011;57517;43.562;19.540;2024-02-21T10:10:29;12.68;;;10.73;;
70150;SDS011;57517;43.562;19.540;2024-02-21T10:13:24;13.82;;;10.27;;
70150;SDS011;57517;43.562;19.540;2024-02-21T10:18:27;15.52;;;12.10;;
70150;SDS011;57517;43.562;19.540;2024-02-21T10:21:06;15.00;;;12.38;;
70150;SDS011;57517;43.562;19.540;2024-02-21T10:26:11;13.48;;;11.27;;
70150;SDS011;57517;43.562;19.540;2024-02-21T10:28:38;16.58;;;13.88;;
70150;SDS011;57517;43.562;19.540;2024-02-21T10:31:07;15.50;;;12.48;;
70150;SDS011;57517;43.562;19.540;2024-02-21T10:33:36;14.32;;;11.40;;
70150;SDS011;57517;43.562;19.540;2024-02-21T10:36:09;12.63;;;9.75;;
70150;SDS011;57517;43.562;19.540;2024-02-21T10:38:39;26.92;;;18.75;;
70150;SDS011;57517;43.562;19.540;2024-02-21T10:41:05;47.00;;;29.30;;
70150;SDS011;57517;43.562;19.540;2024-02-21T10:43:39;22.85;;;15.48;;
70150;SDS011;57517;43.562;19.540;2024-02-21T10:46:08;34.00;;;24.10;;
70150;SDS011;57517;43.562;19.540;2024-02-21T10:48:45;53.20;;;39.05;;
70150;SDS011;57517;43.562;19.540;2024-02-21T10:53:44;28.27;;;23.88;;
70150;SDS011;57517;43.562;19.540;2024-02-21T10:58:48;20.83;;;16.38;;
70150;SDS011;57517;43.562;19.540;2024-02-21T11:01:14;18.98;;;14.68;;
70150;SDS011;57517;43.562;19.540;2024-02-21T11:03:41;25.55;;;19.20;;
70150;SDS011;57517;43.562;19.540;2024-02-21T11:06:14;20.77;;;15.73;;
70150;SDS011;57517;43.562;19.540;2024-02-21T11:08:41;20.65;;;16.10;;
70150;SDS011;57517;43.562;19.540;2024-02-21T11:11:07;20.10;;;15.93;;
70150;SDS011;57517;43.562;19.540;2024-02-21T11:13:35;23.08;;;18.00;;
70150;SDS011;57517;43.562;19.540;2024-02-21T11:16:05;31.70;;;22.05;;
70150;SDS011;57517;43.562;19.540;2024-02-21T11:18:36;34.15;;;24.95;;
70150;SDS011;57517;43.562;19.540;2024-02-21T11:21:02;31.83;;;24.17;;
70150;SDS011;57517;43.562;19.540;2024-02-21T11:23:31;33.08;;;25.05;;
70150;SDS011;57517;43.562;19.540;2024-02-21T11:26:07;28.23;;;21.13;;
70150;SDS011;57517;43.562;19.540;2024-02-21T11:28:34;18.60;;;14.05;;
70150;SDS011;57517;43.562;19.540;2024-02-21T11:31:11;14.38;;;11.65;;
70150;SDS011;57517;43.562;19.540;2024-02-21T11:33:41;15.95;;;12.60;;
70150;SDS011;57517;43.562;19.540;2024-02-21T11:36:10;20.67;;;15.48;;
70150;SDS011;57517;43.562;19.540;2024-02-21T11:38:36;16.42;;;13.60;;
70150;SDS011;57517;43.562;19.540;2024-02-21T11:41:02;17.15;;;13.40;;
70150;SDS011;57517;43.562;19.540;2024-02-21T11:43:33;18.55;;;14.38;;
70150;SDS011;57517;43.562;19.540;2024-02-21T11:46:01;24.75;;;20.90;;
70150;SDS011;57517;43.562;19.540;2024-02-21T11:48:29;23.65;;;19.33;;
70150;SDS011;57517;43.562;19.540;2024-02-21T11:50:56;23.40;;;20.67;;
70150;SDS011;57517;43.562;19.540;2024-02-21T11:53:22;21.98;;;18.00;;
70150;SDS011;57517;43.562;19.540;2024-02-21T11:55:49;31.95;;;22.98;;
70150;SDS011;57517;43.562;19.540;2024-02-21T11:58:15;30.90;;;22.65;;
70150;SDS011;57517;43.562;19.540;2024-02-21T12:00:41;58.78;;;37.22;;
70150;SDS011;57517;43.562;19.540;2024-02-21T12:03:07;42.55;;;30.17;;
70150;SDS011;57517;43.562;19.540;2024-02-21T12:05:34;28.60;;;21.35;;
70150;SDS011;57517;43.562;19.540;2024-02-21T12:08:00;93.72;;;52.25;;
70150;SDS011;57517;43.562;19.540;2024-02-21T12:10:26;74.82;;;43.58;;
70150;SDS011;57517;43.562;19.540;2024-02-21T12:13:05;54.92;;;36.75;;
70150;SDS011;57517;43.562;19.540;2024-02-21T12:15:34;37.65;;;27.65;;
70150;SDS011;57517;43.562;19.540;2024-02-21T12:18:00;27.15;;;20.63;;
70150;SDS011;57517;43.562;19.540;2024-02-21T12:20:26;19.90;;;16.75;;
70150;SDS011;57517;43.562;19.540;2024-02-21T12:22:52;22.70;;;18.02;;
70150;SDS011;57517;43.562;19.540;2024-02-21T12:25:19;21.35;;;16.13;;
70150;SDS011;57517;43.562;19.540;2024-02-21T12:27:52;39.28;;;25.75;;
70150;SDS011;57517;43.562;19.540;2024-02-21T12:30:18;43.53;;;26.95;;
70150;SDS011;57517;43.562;19.540;2024-02-21T12:32:45;27.88;;;20.50;;
70150;SDS011;57517;43.562;19.540;2024-02-21T12:35:11;29.60;;;21.55;;
70150;SDS011;57517;43.562;19.540;2024-02-21T12:37:37;68.65;;;42.50;;
70150;SDS011;57517;43.562;19.540;2024-02-21T12:40:04;32.83;;;24.35;;
70150;SDS011;57517;43.562;19.540;2024-02-21T12:42:32;15.93;;;13.38;;
70150;SDS011;57517;43.562;19.540;2024-02-21T12:44:58;14.20;;;10.63;;
70150;SDS011;57517;43.562;19.540;2024-02-21T12:47:24;13.02;;;8.65;;
70150;SDS011;57517;43.562;19.540;2024-02-21T12:49:52;10.98;;;8.52;;
70150;SDS011;57517;43.562;19.540;2024-02-21T12:52:18;37.75;;;23.10;;
70150;SDS011;57517;43.562;19.540;2024-02-21T12:54:44;40.08;;;25.27;;
70150;SDS011;57517;43.562;19.540;2024-02-21T12:57:10;25.42;;;17.08;;
70150;SDS011;57517;43.562;19.540;2024-02-21T12:59:36;19.00;;;14.93;;
70150;SDS011;57517;43.562;19.540;2024-02-21T13:02:01;19.38;;;13.98;;
70150;SDS011;57517;43.562;19.540;2024-02-21T13:04:27;27.42;;;22.50;;
70150;SDS011;57517;43.562;19.540;2024-02-21T13:06:53;26.30;;;22.80;;
70150;SDS011;57517;43.562;19.540;2024-02-21T13:09:20;52.33;;;45.22;;
70150;SDS011;57517;43.562;19.540;2024-02-21T13:11:46;43.78;;;34.08;;
70150;SDS011;57517;43.562;19.540;2024-02-21T13:14:12;33.03;;;24.98;;
70150;SDS011;57517;43.562;19.540;2024-02-21T13:16:38;32.67;;;22.83;;
70150;SDS011;57517;43.562;19.540;2024-02-21T13:19:07;17.45;;;12.13;;
70150;SDS011;57517;43.562;19.540;2024-02-21T13:21:33;14.40;;;9.75;;
70150;SDS011;57517;43.562;19.540;2024-02-21T13:24:00;18.92;;;14.02;;
70150;SDS011;57517;43.562;19.540;2024-02-21T13:26:26;20.58;;;11.57;;
70150;SDS011;57517;43.562;19.540;2024-02-21T13:28:52;16.33;;;12.50;;
70150;SDS011;57517;43.562;19.540;2024-02-21T13:31:18;20.25;;;14.90;;
70150;SDS011;57517;43.562;19.540;2024-02-21T13:33:44;18.58;;;12.77;;
70150;SDS011;57517;43.562;19.540;2024-02-21T13:36:10;17.13;;;13.57;;
70150;SDS011;57517;43.562;19.540;2024-02-21T13:38:37;15.35;;;10.15;;
70150;SDS011;57517;43.562;19.540;2024-02-21T13:41:06;15.10;;;11.70;;
70150;SDS011;57517;43.562;19.540;2024-02-21T13:43:32;15.13;;;10.43;;
70150;SDS011;57517;43.562;19.540;2024-02-21T13:45:59;18.08;;;12.93;;
70150;SDS011;57517;43.562;19.540;2024-02-21T13:48:31;18.10;;;14.68;;
70150;SDS011;57517;43.562;19.540;2024-02-21T13:50:58;22.20;;;16.83;;
70150;SDS011;57517;43.562;19.540;2024-02-21T13:53:24;26.35;;;19.20;;
70150;SDS011;57517;43.562;19.540;2024-02-21T13:55:50;25.50;;;18.23;;
70150;SDS011;57517;43.562;19.540;2024-02-21T13:58:16;33.40;;;26.42;;
70150;SDS011;57517;43.562;19.540;2024-02-21T14:00:42;31.23;;;23.52;;
70150;SDS011;57517;43.562;19.540;2024-02-21T14:03:08;26.05;;;20.08;;
70150;SDS011;57517;43.562;19.540;2024-02-21T14:05:34;27.33;;;18.52;;
70150;SDS011;57517;43.562;19.540;2024-02-21T14:08:00;25.67;;;18.15;;
70150;SDS011;57517;43.562;19.540;2024-02-21T14:10:26;17.45;;;12.38;;
70150;SDS011;57517;43.562;19.540;2024-02-21T14:12:52;27.33;;;19.67;;
70150;SDS011;57517;43.562;19.540;2024-02-21T14:15:21;24.02;;;18.15;;
70150;SDS011;57517;43.562;19.540;2024-02-21T14:17:47;35.85;;;24.92;;
70150;SDS011;57517;43.562;19.540;2024-02-21T14:20:12;30.85;;;23.13;;